createdAt,value
2022-08-30T00:00:00.999Z,93.29
2022-08-30T00:02:48.806Z,93.23
2022-08-30T00:05:36.815Z,93.11
2022-08-30T00:08:24.471Z,93.04
2022-08-30T00:11:14.640Z,93.02
2022-08-30T00:14:01.736Z,92.70
2022-08-30T00:16:50.352Z,92.78
2022-08-30T00:19:38.385Z,92.99
2022-08-30T00:22:26.168Z,93.04
2022-08-30T00:25:14.321Z,92.97
2022-08-30T00:28:02.668Z,92.97
2022-08-30T00:30:50.699Z,92.93
2022-08-30T00:33:39.752Z,93.01
2022-08-30T00:36:27.794Z,92.98
2022-08-30T00:39:15.160Z,93.12
2022-08-30T00:42:02.593Z,92.98
2022-08-30T00:44:50.791Z,92.87
2022-08-30T00:47:38.269Z,92.50
2022-08-30T00:50:27.639Z,92.34
2022-08-30T00:53:18.261Z,92.12
2022-08-30T00:56:07.113Z,91.96
2022-08-30T00:58:56.368Z,92.26
2022-08-30T01:01:44.333Z,92.32
2022-08-30T01:04:31.920Z,92.31
2022-08-30T01:07:19.872Z,92.38
2022-08-30T01:10:10.104Z,92.48
2022-08-30T01:12:57.256Z,92.65
2022-08-30T01:15:46.424Z,92.52
2022-08-30T01:18:34.344Z,92.62
2022-08-30T01:21:39.871Z,92.51
2022-08-30T01:24:27.513Z,92.49
2022-08-30T01:27:19.246Z,92.55
2022-08-30T01:30:08.322Z,92.17
2022-08-30T01:33:01.545Z,91.84
2022-08-30T01:35:53.506Z,91.57
2022-08-30T01:38:49.586Z,91.41
2022-08-30T01:41:38.098Z,90.95
2022-08-30T01:44:25.640Z,90.71
2022-08-30T01:47:13.552Z,90.91
2022-08-30T01:50:01.279Z,90.99
2022-08-30T01:52:48.697Z,91.19
2022-08-30T01:55:37.728Z,90.95
2022-08-30T01:58:25.928Z,90.80
2022-08-30T02:01:15.381Z,90.47
2022-08-30T02:04:03.492Z,90.38
2022-08-30T02:06:51.442Z,90.39
2022-08-30T02:09:39.408Z,90.53
2022-08-30T02:12:27.076Z,90.52
2022-08-30T02:15:14.640Z,90.82
2022-08-30T02:18:02.328Z,91.05
2022-08-30T02:20:49.818Z,91.06
2022-08-30T02:23:37.568Z,90.74
2022-08-30T02:26:26.537Z,91.12
2022-08-30T02:29:14.555Z,91.46
2022-08-30T02:32:01.740Z,91.56
2022-08-30T02:34:48.928Z,91.58
2022-08-30T02:37:38.104Z,91.99
2022-08-30T02:40:26.163Z,92.43
2022-08-30T02:43:13.827Z,92.56
2022-08-30T02:46:01.305Z,92.24
2022-08-30T02:48:48.664Z,92.46
2022-08-30T02:51:36.576Z,92.64
2022-08-30T02:54:24.024Z,92.65
2022-08-30T02:57:18.146Z,92.90
2022-08-30T03:00:02.464Z,93.09
2022-08-30T03:02:50.201Z,92.99
2022-08-30T03:05:39.663Z,93.01
2022-08-30T03:08:26.808Z,93.24
2022-08-30T03:11:14.393Z,93.42
2022-08-30T03:14:02.059Z,93.49
2022-08-30T03:16:49.836Z,93.50
2022-08-30T03:19:38.464Z,93.52
2022-08-30T03:26:15.132Z,93.52
2022-08-30T03:29:02.458Z,93.25
2022-08-30T03:31:53.304Z,93.27
2022-08-30T03:34:39.024Z,92.99
2022-08-30T03:37:27.842Z,92.98
2022-08-30T03:40:17.578Z,92.78
2022-08-30T03:43:06.416Z,92.98
2022-08-30T03:45:54.186Z,92.99
2022-08-30T03:48:41.944Z,92.96
2022-08-30T03:51:29.744Z,92.90
2022-08-30T03:54:17.184Z,93.21
2022-08-30T03:57:04.576Z,93.20
2022-08-30T03:59:52.337Z,93.01
2022-08-30T04:02:41.084Z,92.67
2022-08-30T04:05:28.424Z,92.46
2022-08-30T04:08:16.112Z,92.02
2022-08-30T04:11:05.005Z,91.85
2022-08-30T04:13:53.528Z,91.46
2022-08-30T04:16:41.140Z,91.58
2022-08-30T04:19:28.912Z,91.17
2022-08-30T04:22:16.304Z,91.22
2022-08-30T04:25:05.419Z,91.48
2022-08-30T04:27:52.689Z,91.58
2022-08-30T04:30:44.313Z,91.42
2022-08-30T04:33:31.745Z,90.96
2022-08-30T04:36:21.004Z,90.61
2022-08-30T04:39:08.616Z,90.13
2022-08-30T04:41:56.264Z,89.70
2022-08-30T04:44:43.489Z,89.54
2022-08-30T04:47:30.874Z,89.12
2022-08-30T04:50:20.608Z,89.26
2022-08-30T04:53:07.608Z,89.00
2022-08-30T04:55:55.226Z,88.86
2022-08-30T04:58:44.944Z,88.33
2022-08-30T05:01:44.826Z,88.32
2022-08-30T05:04:23.473Z,88.22
2022-08-30T05:07:11.160Z,87.77
2022-08-30T05:09:58.447Z,87.57
2022-08-30T05:12:45.961Z,87.54
2022-08-30T05:15:33.817Z,87.54
2022-08-30T05:18:22.760Z,87.93
2022-08-30T05:21:16.185Z,88.24
2022-08-30T05:24:40.257Z,88.71
2022-08-30T05:27:27.816Z,89.36
2022-08-30T05:30:16.784Z,89.34
2022-08-30T05:33:04.761Z,89.39
2022-08-30T05:35:52.096Z,89.53
2022-08-30T05:38:39.629Z,88.90
2022-08-30T05:41:29.139Z,88.56
2022-08-30T05:44:16.569Z,88.09
2022-08-30T05:47:03.905Z,87.98
2022-08-30T05:49:51.345Z,87.96
2022-08-30T05:52:40.769Z,88.14
2022-08-30T05:55:28.336Z,88.16
2022-08-30T05:58:16.061Z,87.68
2022-08-30T06:01:04.215Z,88.16
2022-08-30T06:03:51.758Z,88.45
2022-08-30T06:06:41.360Z,88.49
2022-08-30T06:09:28.792Z,89.30
2022-08-30T06:12:15.888Z,89.46
2022-08-30T06:15:03.143Z,89.63
2022-08-30T06:17:50.688Z,89.65
2022-08-30T06:20:43.136Z,90.00
2022-08-30T06:23:30.906Z,90.39
2022-08-30T06:26:19.356Z,90.67
2022-08-30T06:29:07.145Z,91.10
2022-08-30T06:31:57.199Z,90.57
2022-08-30T06:34:44.628Z,90.16
2022-08-30T06:37:33.144Z,89.63
2022-08-30T06:40:21.876Z,89.71
2022-08-30T06:43:09.682Z,89.33
2022-08-30T06:45:58.015Z,88.53
2022-08-30T06:48:47.831Z,87.74
2022-08-30T06:51:37.433Z,86.29
2022-08-30T06:54:26.265Z,85.23
2022-08-30T06:57:13.681Z,84.10
2022-08-30T07:00:02.576Z,83.94
2022-08-30T07:02:50.240Z,83.99
2022-08-30T07:05:37.842Z,83.93
2022-08-30T07:08:27.431Z,84.24
2022-08-30T07:11:15.210Z,84.35
2022-08-30T07:14:02.873Z,83.99
2022-08-30T07:16:51.102Z,82.94
2022-08-30T07:19:39.056Z,81.50
2022-08-30T07:22:26.211Z,79.63
2022-08-30T07:25:13.705Z,79.18
2022-08-30T07:28:01.472Z,77.29
2022-08-30T07:30:49.350Z,76.34
2022-08-30T07:33:37.079Z,76.12
2022-08-30T07:36:24.688Z,76.10
2022-08-30T07:39:12.044Z,75.96
2022-08-30T07:41:59.639Z,74.95
2022-08-30T07:44:47.168Z,73.36
2022-08-30T07:47:34.513Z,71.93
2022-08-30T07:50:22.633Z,70.37
2022-08-30T07:53:11.275Z,70.29
2022-08-30T07:55:58.745Z,70.76
2022-08-30T07:58:46.319Z,70.50
2022-08-30T08:01:33.855Z,69.74
2022-08-30T08:04:21.609Z,70.47
2022-08-30T08:07:09.016Z,69.90
2022-08-30T08:09:56.329Z,70.59
2022-08-30T08:12:44.056Z,71.23
2022-08-30T08:15:33.176Z,72.04
2022-08-30T08:18:20.739Z,72.63
2022-08-30T08:21:07.752Z,72.20
2022-08-30T08:23:56.041Z,72.18
2022-08-30T08:26:45.431Z,71.29
2022-08-30T08:29:33.627Z,69.67
2022-08-30T08:32:21.144Z,70.02
2022-08-30T08:35:08.865Z,69.18
2022-08-30T08:37:56.561Z,67.39
2022-08-30T08:41:02.816Z,67.32
2022-08-30T08:43:50.362Z,66.03
2022-08-30T08:46:41.385Z,65.51
2022-08-30T08:49:30.474Z,63.66
2022-08-30T08:52:41.936Z,63.65
2022-08-30T08:55:30.131Z,65.16
2022-08-30T08:58:26.144Z,65.83
2022-08-30T09:01:15.605Z,64.21
2022-08-30T09:08:18.537Z,62.95
2022-08-30T09:11:09.072Z,62.97
2022-08-30T09:13:56.950Z,62.16
2022-08-30T09:16:56.464Z,60.99
2022-08-30T09:19:46.418Z,58.88
2022-08-30T09:22:38.865Z,58.96
2022-08-30T09:25:31.350Z,57.90
2022-08-30T09:28:27.666Z,57.19
2022-08-30T09:31:26.544Z,58.24
2022-08-30T09:34:17.097Z,60.09
2022-08-30T09:37:04.858Z,59.81
2022-08-30T09:39:52.088Z,59.80
2022-08-30T09:42:39.929Z,57.95
2022-08-30T09:48:26.513Z,57.53
2022-08-30T09:51:19.160Z,58.46
2022-08-30T09:54:19.761Z,58.15
2022-08-30T09:57:12.883Z,56.47
2022-08-30T10:00:13.479Z,55.30
2022-08-30T10:03:35.736Z,56.02
2022-08-30T10:06:25.264Z,57.58
2022-08-30T10:12:12.561Z,61.75
2022-08-30T10:15:28.633Z,62.54
2022-08-30T10:18:26.752Z,62.56
2022-08-30T10:21:19.888Z,59.42
2022-08-30T10:24:20.963Z,56.55
2022-08-30T10:27:12.448Z,56.91
2022-08-30T10:30:06.203Z,57.83
2022-08-30T10:33:08.571Z,57.84
2022-08-30T10:36:01.288Z,58.28
2022-08-30T10:38:50.721Z,57.54
2022-08-30T10:41:44.642Z,56.52
2022-08-30T10:44:35.105Z,56.50
2022-08-30T10:47:38.224Z,57.07
2022-08-30T10:50:28.608Z,56.13
2022-08-30T10:53:21.680Z,54.00
2022-08-30T10:56:13.083Z,54.11
2022-08-30T10:59:00.992Z,53.82
2022-08-30T11:01:57.873Z,54.03
2022-08-30T11:05:00.968Z,55.58
2022-08-30T11:08:20.533Z,55.83
2022-08-30T11:11:12.573Z,54.23
2022-08-30T11:14:01.271Z,51.39
2022-08-30T11:16:49.289Z,50.36
2022-08-30T11:19:39.976Z,48.59
2022-08-30T11:22:38.884Z,48.72
2022-08-30T11:25:56.866Z,49.99
2022-08-30T11:28:44.161Z,51.22
2022-08-30T11:31:42.172Z,54.01
2022-08-30T11:34:50.739Z,55.32
2022-08-30T11:37:47.098Z,56.63
2022-08-30T11:40:46.480Z,57.19
2022-08-30T11:43:40.489Z,55.93
2022-08-30T11:46:31.203Z,54.81
2022-08-30T11:49:25.132Z,54.73
2022-08-30T11:52:27.615Z,54.43
2022-08-30T11:55:35.008Z,54.54
2022-08-30T11:58:34.184Z,54.85
2022-08-30T12:01:49.716Z,56.15
2022-08-30T12:04:23.938Z,56.50
2022-08-30T12:07:11.999Z,57.60
2022-08-30T12:10:02.312Z,58.48
2022-08-30T12:12:51.251Z,58.15
2022-08-30T12:15:59.515Z,58.68
2022-08-30T12:19:03.119Z,58.78
2022-08-30T12:22:00.240Z,58.87
2022-08-30T12:24:49.983Z,58.99
2022-08-30T12:27:37.575Z,58.51
2022-08-30T12:30:28.687Z,57.00
2022-08-30T12:33:19.301Z,56.75
2022-08-30T12:36:06.822Z,56.27
2022-08-30T12:38:59.189Z,56.39
2022-08-30T12:41:47.600Z,56.43
2022-08-30T12:44:36.617Z,56.32
2022-08-30T12:47:33.079Z,55.78
2022-08-30T12:50:26.337Z,56.22
2022-08-30T12:53:15.425Z,54.49
2022-08-30T12:56:05.946Z,51.86
2022-08-30T12:58:55.496Z,48.79
2022-08-30T13:01:43.683Z,47.08
2022-08-30T13:04:31.208Z,45.72
2022-08-30T13:07:33.760Z,46.18
2022-08-30T13:10:22.560Z,48.65
2022-08-30T13:13:11.232Z,49.12
2022-08-30T13:16:00.534Z,50.04
2022-08-30T13:18:51.609Z,51.54
2022-08-30T13:21:49.182Z,51.91
2022-08-30T13:24:37.034Z,51.29
2022-08-30T13:27:24.687Z,51.13
2022-08-30T13:30:16.360Z,50.03
2022-08-30T13:33:03.646Z,50.45
2022-08-30T13:35:51.321Z,51.07
2022-08-30T13:38:38.983Z,50.89
2022-08-30T13:41:33.774Z,50.92
2022-08-30T13:44:16.320Z,49.98
2022-08-30T13:49:53.193Z,47.30
2022-08-30T13:52:41.223Z,42.29
2022-08-30T13:55:29.584Z,37.36
2022-08-30T13:58:18.207Z,35.34
2022-08-30T14:01:06.708Z,35.87
2022-08-30T14:09:34.633Z,38.01
2022-08-30T14:12:52.519Z,37.36
2022-08-30T14:15:11.401Z,40.31
2022-08-30T14:17:59.440Z,43.62
2022-08-30T14:20:47.863Z,45.85
2022-08-30T14:23:35.665Z,46.43
2022-08-30T14:26:26.729Z,46.08
2022-08-30T14:29:18.969Z,47.04
2022-08-30T14:32:06.056Z,47.98
2022-08-30T14:34:53.856Z,48.72
2022-08-30T14:37:41.096Z,49.45
2022-08-30T14:40:28.526Z,47.49
2022-08-30T14:43:16.280Z,45.31
2022-08-30T14:46:04.152Z,43.39
2022-08-30T14:48:51.775Z,41.39
2022-08-30T14:51:39.552Z,41.53
2022-08-30T14:54:29.945Z,40.46
2022-08-30T14:57:17.080Z,37.29
2022-08-30T15:00:05.887Z,35.92
2022-08-30T15:02:53.376Z,33.84
2022-08-30T15:05:40.663Z,37.69
2022-08-30T15:08:28.024Z,41.39
2022-08-30T15:11:17.913Z,44.20
2022-08-30T15:14:06.346Z,42.81
2022-08-30T15:16:56.023Z,39.20
2022-08-30T15:19:43.384Z,36.52
2022-08-30T15:22:30.481Z,35.00
2022-08-30T15:25:18.176Z,34.95
2022-08-30T15:28:05.754Z,36.24
2022-08-30T15:30:53.208Z,39.66
2022-08-30T15:33:40.799Z,42.54
2022-08-30T15:36:31.144Z,45.65
2022-08-30T15:39:19.202Z,43.29
2022-08-30T15:42:06.920Z,39.56
2022-08-30T15:44:55.776Z,37.83
2022-08-30T15:47:43.394Z,37.01
2022-08-30T15:50:32.282Z,36.36
2022-08-30T15:53:20.232Z,35.78
2022-08-30T15:56:07.635Z,36.82
2022-08-30T15:58:55.216Z,39.13
2022-08-30T16:01:43.486Z,42.39
2022-08-30T16:04:31.519Z,44.54
2022-08-30T16:07:18.936Z,43.59
2022-08-30T16:10:06.489Z,41.11
2022-08-30T16:12:54.082Z,39.68
2022-08-30T16:15:43.457Z,39.05
2022-08-30T16:18:30.672Z,39.78
2022-08-30T16:21:25.209Z,40.32
2022-08-30T16:24:13.490Z,41.16
2022-08-30T16:27:01.720Z,43.59
2022-08-30T16:29:49.955Z,46.60
2022-08-30T16:32:38.185Z,48.80
2022-08-30T16:35:26.584Z,51.13
2022-08-30T16:38:14.575Z,52.83
2022-08-30T16:41:08.471Z,53.82
2022-08-30T16:43:56.203Z,54.41
2022-08-30T16:46:44.070Z,52.94
2022-08-30T16:49:33.400Z,52.17
2022-08-30T16:52:20.848Z,53.52
2022-08-30T16:55:08.737Z,55.44
2022-08-30T16:57:57.975Z,57.31
2022-08-30T17:00:47.526Z,58.63
2022-08-30T17:03:35.856Z,59.83
2022-08-30T17:06:23.576Z,61.81
2022-08-30T17:09:11.168Z,63.17
2022-08-30T17:11:59.750Z,64.67
2022-08-30T17:14:47.545Z,65.88
2022-08-30T17:17:35.344Z,66.91
2022-08-30T17:20:23.488Z,67.31
2022-08-30T17:23:11.065Z,68.04
2022-08-30T17:25:58.540Z,68.73
2022-08-30T17:28:46.015Z,69.45
2022-08-30T17:31:34.713Z,70.01
2022-08-30T17:34:23.328Z,70.65
2022-08-30T17:37:12.418Z,71.25
2022-08-30T17:40:00.788Z,71.74
2022-08-30T17:42:48.522Z,72.10
2022-08-30T17:45:37.800Z,72.65
2022-08-30T17:48:25.198Z,72.88
2022-08-30T17:51:12.962Z,73.54
2022-08-30T17:54:01.367Z,75.12
2022-08-30T17:56:49.090Z,76.65
2022-08-30T17:59:37.000Z,77.78
2022-08-30T18:02:30.117Z,78.87
2022-08-30T18:05:13.600Z,79.87
2022-08-30T18:08:01.071Z,80.60
2022-08-30T18:10:48.991Z,81.40
2022-08-30T18:13:36.966Z,82.28
2022-08-30T18:16:26.366Z,83.28
2022-08-30T18:19:13.783Z,84.13
2022-08-30T18:22:03.332Z,84.66
2022-08-30T18:24:50.600Z,85.21
2022-08-30T18:27:40.287Z,85.87
2022-08-30T18:30:34.062Z,86.65
2022-08-30T18:33:18.688Z,86.97
2022-08-30T18:36:07.280Z,87.17
2022-08-30T18:38:54.595Z,87.25
2022-08-30T18:41:43.131Z,87.55
2022-08-30T18:44:33.344Z,87.99
2022-08-30T18:47:23.127Z,88.61
2022-08-30T18:50:10.953Z,89.20
2022-08-30T18:52:59.344Z,89.84
2022-08-30T18:55:48.673Z,90.47
2022-08-30T18:58:35.776Z,91.08
2022-08-30T19:01:23.186Z,91.46
2022-08-30T19:04:22.165Z,91.72
2022-08-30T19:07:00.400Z,91.99
2022-08-30T19:09:47.914Z,92.72
2022-08-30T19:12:35.399Z,93.06
2022-08-30T19:15:23.689Z,93.38
2022-08-30T19:18:17.395Z,93.34
2022-08-30T19:21:00.468Z,93.18
2022-08-30T19:23:54.395Z,92.87
2022-08-30T19:26:38.722Z,92.50
2022-08-30T19:29:26.020Z,92.32
2022-08-30T19:32:13.329Z,92.07
2022-08-30T19:35:00.905Z,92.34
2022-08-30T19:37:48.727Z,92.74
2022-08-30T19:40:36.464Z,92.92
2022-08-30T19:43:24.734Z,93.29
2022-08-30T19:46:12.241Z,93.31
2022-08-30T19:49:01.300Z,93.17
2022-08-30T19:51:48.799Z,92.94
2022-08-30T19:54:36.185Z,93.81
2022-08-30T19:57:23.633Z,95.48
2022-08-30T20:00:16.672Z,96.90
2022-08-30T20:03:02.963Z,97.19
2022-08-30T20:05:50.544Z,96.76
2022-08-30T20:08:38.545Z,96.06
2022-08-30T20:11:27.760Z,95.01
2022-08-30T20:14:15.817Z,94.39
2022-08-30T20:17:03.178Z,94.40
2022-08-30T20:19:50.697Z,94.15
2022-08-30T20:22:38.443Z,93.91
2022-08-30T20:25:26.088Z,94.18
2022-08-30T20:28:14.217Z,94.31
2022-08-30T20:31:01.765Z,94.57
2022-08-30T20:33:49.203Z,94.91
2022-08-30T20:36:36.595Z,95.02
2022-08-30T20:39:25.145Z,95.34
2022-08-30T20:42:13.205Z,95.49
2022-08-30T20:45:00.729Z,95.62
2022-08-30T20:47:49.081Z,95.67
2022-08-30T20:50:36.490Z,95.51
2022-08-30T20:53:23.732Z,95.24
2022-08-30T20:56:17.276Z,95.08
2022-08-30T20:59:05.659Z,95.03
2022-08-30T21:01:53.080Z,94.87
2022-08-30T21:04:42.203Z,94.95
2022-08-30T21:07:29.658Z,95.04
2022-08-30T21:10:22.597Z,95.12
2022-08-30T21:13:07.648Z,95.27
2022-08-30T21:15:57.618Z,95.47
2022-08-30T21:18:45.549Z,95.62
2022-08-30T21:21:33.409Z,95.73
2022-08-30T21:24:20.898Z,95.81
2022-08-30T21:27:08.473Z,95.82
2022-08-30T21:29:55.827Z,95.93
2022-08-30T21:32:43.610Z,96.04
2022-08-30T21:35:49.218Z,96.09
2022-08-30T21:38:37.089Z,96.40
2022-08-30T21:41:24.642Z,96.32
2022-08-30T21:44:16.753Z,96.06
2022-08-30T21:47:04.410Z,95.41
2022-08-30T21:49:51.777Z,95.90
2022-08-30T21:52:39.394Z,96.01
2022-08-30T21:55:26.794Z,96.55
2022-08-30T21:58:14.267Z,97.26
2022-08-30T22:01:03.076Z,97.21
2022-08-30T22:03:55.314Z,96.64
2022-08-30T22:06:45.634Z,96.22
2022-08-30T22:09:33.137Z,96.13
2022-08-30T22:12:20.641Z,96.03
2022-08-30T22:15:09.479Z,95.80
2022-08-30T22:17:57.154Z,95.60
2022-08-30T22:20:44.858Z,95.37
2022-08-30T22:23:32.899Z,95.31
2022-08-30T22:26:22.096Z,95.02
2022-08-30T22:29:10.369Z,94.35
2022-08-30T22:31:57.819Z,93.56
2022-08-30T22:34:48.121Z,92.92
2022-08-30T22:37:35.633Z,92.46
2022-08-30T22:40:22.976Z,92.26
2022-08-30T22:43:10.688Z,92.13
2022-08-30T22:45:59.368Z,92.07
2022-08-30T22:48:49.198Z,91.92
2022-08-30T22:51:37.153Z,91.88
2022-08-30T22:54:24.849Z,92.00
2022-08-30T22:57:14.075Z,91.89
2022-08-30T23:00:04.617Z,91.53
2022-08-30T23:02:52.524Z,91.28
2022-08-30T23:05:39.921Z,91.23
2022-08-30T23:08:28.009Z,91.18
2022-08-30T23:11:16.052Z,91.46
2022-08-30T23:14:04.511Z,91.65
2022-08-30T23:16:51.816Z,91.84
2022-08-30T23:19:39.273Z,92.35
2022-08-30T23:22:28.313Z,92.51
2022-08-30T23:25:34.736Z,92.56
2022-08-30T23:28:40.994Z,92.69
2022-08-30T23:31:46.470Z,92.80
2022-08-30T23:34:51.433Z,93.15
2022-08-30T23:37:56.537Z,93.19
2022-08-30T23:41:02.065Z,93.75
2022-08-30T23:44:07.193Z,94.16
2022-08-30T23:47:12.400Z,94.30
2022-08-30T23:50:17.968Z,94.51
2022-08-30T23:53:23.841Z,94.86
2022-08-30T23:56:30.585Z,94.83
2022-08-30T23:59:36.057Z,94.74
